sensor_id;sensor_type;location;lat;lon;timestamp;pressure;altitude;pressure_sealevel;temperature;humidity
54122;BME280;40029;58.708;50.190;2024-03-22T00:01:29;100152.72;;;1.93;63.46
54122;BME280;40029;58.708;50.190;2024-03-22T00:04:00;100153.63;;;1.92;63.76
54122;BME280;40029;58.708;50.190;2024-03-22T00:06:32;100147.50;;;1.93;64.08
54122;BME280;40029;58.708;50.190;2024-03-22T00:09:03;100148.38;;;1.87;63.85
54122;BME280;40029;58.708;50.190;2024-03-22T00:11:34;100149.25;;;1.83;64.55
54122;BME280;40029;58.708;50.190;2024-03-22T00:14:06;100138.81;;;1.80;64.59
54122;BME280;40029;58.708;50.190;2024-03-22T00:16:37;100142.28;;;1.81;64.27
54122;BME280;40029;58.708;50.190;2024-03-22T00:19:09;100144.06;;;1.83;64.18
54122;BME280;40029;58.708;50.190;2024-03-22T00:21:40;100137.09;;;1.85;64.04
54122;BME280;40029;58.708;50.190;2024-03-22T00:24:11;100146.66;;;1.83;64.36
54122;BME280;40029;58.708;50.190;2024-03-22T00:26:42;100147.50;;;1.81;64.42
54122;BME280;40029;58.708;50.190;2024-03-22T00:29:20;100141.44;;;1.74;64.86
54122;BME280;40029;58.708;50.190;2024-03-22T00:31:51;100141.44;;;1.74;64.84
54122;BME280;40029;58.708;50.190;2024-03-22T00:34:22;100133.63;;;1.74;64.52
54122;BME280;40029;58.708;50.190;2024-03-22T00:36:53;100134.47;;;1.71;64.75
54122;BME280;40029;58.708;50.190;2024-03-22T00:39:25;100133.63;;;1.74;64.51
54122;BME280;40029;58.708;50.190;2024-03-22T00:41:56;100130.13;;;1.67;64.74
54122;BME280;40029;58.708;50.190;2024-03-22T00:44:45;100138.84;;;1.68;65.01
54122;BME280;40029;58.708;50.190;2024-03-22T00:47:16;100136.22;;;1.71;64.79
54122;BME280;40029;58.708;50.190;2024-03-22T00:49:47;100132.75;;;1.73;64.67
54122;BME280;40029;58.708;50.190;2024-03-22T00:52:37;100126.69;;;1.70;65.10
54122;BME280;40029;58.708;50.190;2024-03-22T00:55:08;100128.41;;;1.72;64.57
54122;BME280;40029;58.708;50.190;2024-03-22T00:57:39;100131.88;;;1.74;65.01
54122;BME280;40029;58.708;50.190;2024-03-22T01:00:11;100132.72;;;1.75;64.70
54122;BME280;40029;58.708;50.190;2024-03-22T01:02:43;100133.59;;;1.71;64.61
54122;BME280;40029;58.708;50.190;2024-03-22T01:05:14;100130.16;;;1.73;64.52
54122;BME280;40029;58.708;50.190;2024-03-22T01:07:45;100121.44;;;1.71;64.65
54122;BME280;40029;58.708;50.190;2024-03-22T01:10:17;100122.31;;;1.72;64.81
54122;BME280;40029;58.708;50.190;2024-03-22T01:12:49;100118.00;;;1.77;64.67
54122;BME280;40029;58.708;50.190;2024-03-22T01:15:21;100126.66;;;1.76;64.71
54122;BME280;40029;58.708;50.190;2024-03-22T01:18:11;100121.44;;;1.78;64.57
54122;BME280;40029;58.708;50.190;2024-03-22T01:21:01;100117.09;;;1.78;64.28
54122;BME280;40029;58.708;50.190;2024-03-22T01:23:54;100118.84;;;1.79;64.55
54122;BME280;40029;58.708;50.190;2024-03-22T01:26:25;100119.72;;;1.78;64.36
54122;BME280;40029;58.708;50.190;2024-03-22T01:28:56;100122.31;;;1.80;65.03
54122;BME280;40029;58.708;50.190;2024-03-22T01:31:27;100116.25;;;1.79;64.84
54122;BME280;40029;58.708;50.190;2024-03-22T01:33:59;100105.78;;;1.81;64.13
54122;BME280;40029;58.708;50.190;2024-03-22T01:36:30;100107.53;;;1.80;64.86
54122;BME280;40029;58.708;50.190;2024-03-22T01:39:01;100112.75;;;1.72;65.26
54122;BME280;40029;58.708;50.190;2024-03-22T01:41:33;100110.16;;;1.74;65.00
54122;BME280;40029;58.708;50.190;2024-03-22T01:44:04;100104.09;;;1.63;66.11
54122;BME280;40029;58.708;50.190;2024-03-22T01:46:35;100113.63;;;1.54;66.25
54122;BME280;40029;58.708;50.190;2024-03-22T01:49:09;100113.63;;;1.39;67.37
54122;BME280;40029;58.708;50.190;2024-03-22T01:51:42;100109.28;;;1.44;66.78
54122;BME280;40029;58.708;50.190;2024-03-22T01:54:15;100111.91;;;1.37;67.88
54122;BME280;40029;58.708;50.190;2024-03-22T01:57:05;100115.34;;;1.40;67.16
54122;BME280;40029;58.708;50.190;2024-03-22T01:59:37;100113.63;;;1.42;67.26
54122;BME280;40029;58.708;50.190;2024-03-22T02:02:10;100103.22;;;1.50;66.78
54122;BME280;40029;58.708;50.190;2024-03-22T02:04:42;100102.34;;;1.57;65.73
54122;BME280;40029;58.708;50.190;2024-03-22T02:07:13;100095.38;;;1.53;66.37
54122;BME280;40029;58.708;50.190;2024-03-22T02:09:44;100096.28;;;1.55;65.76
54122;BME280;40029;58.708;50.190;2024-03-22T02:12:16;100085.84;;;1.63;66.18
54122;BME280;40029;58.708;50.190;2024-03-22T02:15:07;100091.03;;;1.61;66.29
54122;BME280;40029;58.708;50.190;2024-03-22T02:17:40;100087.56;;;1.61;65.28
54122;BME280;40029;58.708;50.190;2024-03-22T02:20:11;100084.09;;;1.65;65.32
54122;BME280;40029;58.708;50.190;2024-03-22T02:22:42;100080.59;;;1.66;65.43
54122;BME280;40029;58.708;50.190;2024-03-22T02:25:13;100074.53;;;1.51;66.66
54122;BME280;40029;58.708;50.190;2024-03-22T02:27:44;100077.13;;;1.54;66.40
54122;BME280;40029;58.708;50.190;2024-03-22T02:30:17;100077.13;;;1.58;65.64
54122;BME280;40029;58.708;50.190;2024-03-22T02:32:48;100074.53;;;1.53;66.64
54122;BME280;40029;58.708;50.190;2024-03-22T02:35:19;100077.13;;;1.54;66.60
54122;BME280;40029;58.708;50.190;2024-03-22T02:37:51;100081.50;;;1.57;66.04
54122;BME280;40029;58.708;50.190;2024-03-22T02:40:22;100079.72;;;1.54;66.14
54122;BME280;40029;58.708;50.190;2024-03-22T02:42:53;100073.66;;;1.54;65.72
54122;BME280;40029;58.708;50.190;2024-03-22T02:45:24;100081.47;;;1.51;66.52
54122;BME280;40029;58.708;50.190;2024-03-22T02:48:14;100078.00;;;1.52;66.28
54122;BME280;40029;58.708;50.190;2024-03-22T02:50:45;100084.94;;;1.53;66.54
54122;BME280;40029;58.708;50.190;2024-03-22T02:53:16;100072.81;;;1.46;66.32
54122;BME280;40029;58.708;50.190;2024-03-22T02:55:48;100078.00;;;1.49;66.50
54122;BME280;40029;58.708;50.190;2024-03-22T02:58:20;100078.88;;;1.43;66.76
54122;BME280;40029;58.708;50.190;2024-03-22T03:00:52;100085.81;;;1.38;66.70
54122;BME280;40029;58.708;50.190;2024-03-22T03:03:23;100082.34;;;1.36;67.18
54122;BME280;40029;58.708;50.190;2024-03-22T03:06:13;100078.88;;;1.37;66.51
54122;BME280;40029;58.708;50.190;2024-03-22T03:08:46;100071.03;;;1.42;66.65
54122;BME280;40029;58.708;50.190;2024-03-22T03:11:17;100075.41;;;1.43;66.07
54122;BME280;40029;58.708;50.190;2024-03-22T03:13:48;100069.31;;;1.38;66.75
54122;BME280;40029;58.708;50.190;2024-03-22T03:16:19;100071.91;;;1.27;66.95
54122;BME280;40029;58.708;50.190;2024-03-22T03:18:50;100069.31;;;1.27;66.94
54122;BME280;40029;58.708;50.190;2024-03-22T03:21:21;100067.59;;;1.24;67.39
54122;BME280;40029;58.708;50.190;2024-03-22T03:23:53;100054.56;;;1.23;66.86
54122;BME280;40029;58.708;50.190;2024-03-22T03:26:24;100059.78;;;1.26;67.17
54122;BME280;40029;58.708;50.190;2024-03-22T03:28:56;100051.06;;;1.27;66.98
54122;BME280;40029;58.708;50.190;2024-03-22T03:31:28;100058.88;;;1.27;66.80
54122;BME280;40029;58.708;50.190;2024-03-22T03:33:59;100051.06;;;1.28;66.93
54122;BME280;40029;58.708;50.190;2024-03-22T03:36:30;100052.81;;;1.34;66.93
54122;BME280;40029;58.708;50.190;2024-03-22T03:39:01;100059.75;;;1.29;66.43
54122;BME280;40029;58.708;50.190;2024-03-22T03:41:32;100058.91;;;1.30;66.52
54122;BME280;40029;58.708;50.190;2024-03-22T03:44:04;100052.81;;;1.28;67.17
54122;BME280;40029;58.708;50.190;2024-03-22T03:46:35;100056.28;;;1.18;67.18
54122;BME280;40029;58.708;50.190;2024-03-22T03:49:06;100052.78;;;1.22;66.64
54122;BME280;40029;58.708;50.190;2024-03-22T03:51:37;100048.47;;;1.14;67.52
54122;BME280;40029;58.708;50.190;2024-03-22T03:54:08;100045.84;;;1.16;67.75
54122;BME280;40029;58.708;50.190;2024-03-22T03:56:39;100044.97;;;1.14;67.06
54122;BME280;40029;58.708;50.190;2024-03-22T03:59:11;100043.25;;;1.13;67.55
54122;BME280;40029;58.708;50.190;2024-03-22T04:01:42;100044.13;;;1.13;67.16
54122;BME280;40029;58.708;50.190;2024-03-22T04:04:13;100048.47;;;1.05;67.77
54122;BME280;40029;58.708;50.190;2024-03-22T04:06:44;100047.56;;;1.03;67.75
54122;BME280;40029;58.708;50.190;2024-03-22T04:09:16;100044.13;;;1.17;67.54
54122;BME280;40029;58.708;50.190;2024-03-22T04:11:47;100044.13;;;1.10;67.80
54122;BME280;40029;58.708;50.190;2024-03-22T04:14:18;100043.25;;;1.13;68.14
54122;BME280;40029;58.708;50.190;2024-03-22T04:16:50;100037.19;;;1.19;67.56
54122;BME280;40029;58.708;50.190;2024-03-22T04:19:21;100045.84;;;1.25;67.12
54122;BME280;40029;58.708;50.190;2024-03-22T04:21:52;100045.84;;;1.34;67.15
54122;BME280;40029;58.708;50.190;2024-03-22T04:24:23;100041.53;;;1.37;66.62
54122;BME280;40029;58.708;50.190;2024-03-22T04:26:55;100033.72;;;1.41;66.43
54122;BME280;40029;58.708;50.190;2024-03-22T04:29:26;100030.25;;;1.42;66.45
54122;BME280;40029;58.708;50.190;2024-03-22T04:31:57;100035.44;;;1.45;66.41
54122;BME280;40029;58.708;50.190;2024-03-22T04:34:28;100035.44;;;1.47;66.75
54122;BME280;40029;58.708;50.190;2024-03-22T04:36:59;100034.56;;;1.66;65.75
54122;BME280;40029;58.708;50.190;2024-03-22T04:39:49;100031.06;;;1.72;65.87
54122;BME280;40029;58.708;50.190;2024-03-22T04:42:20;100027.59;;;1.79;65.81
54122;BME280;40029;58.708;50.190;2024-03-22T04:44:51;100024.06;;;1.94;65.57
54122;BME280;40029;58.708;50.190;2024-03-22T04:47:22;100022.31;;;1.96;64.81
54122;BME280;40029;58.708;50.190;2024-03-22T04:49:54;100018.78;;;2.06;65.04
54122;BME280;40029;58.708;50.190;2024-03-22T04:52:25;100017.06;;;2.15;64.39
54122;BME280;40029;58.708;50.190;2024-03-22T04:54:56;100014.44;;;2.16;64.22
54122;BME280;40029;58.708;50.190;2024-03-22T04:57:28;100011.78;;;2.27;63.74
54122;BME280;40029;58.708;50.190;2024-03-22T04:59:59;100003.06;;;2.29;64.25
54122;BME280;40029;58.708;50.190;2024-03-22T05:02:30;100012.56;;;2.40;63.55
54122;BME280;40029;58.708;50.190;2024-03-22T05:05:01;100015.13;;;2.49;63.33
54122;BME280;40029;58.708;50.190;2024-03-22T05:07:34;100014.28;;;2.53;63.18
54122;BME280;40029;58.708;50.190;2024-03-22T05:10:05;100002.03;;;2.61;62.52
54122;BME280;40029;58.708;50.190;2024-03-22T05:12:37;100009.84;;;2.67;62.88
54122;BME280;40029;58.708;50.190;2024-03-22T05:15:08;100008.03;;;2.76;62.59
54122;BME280;40029;58.708;50.190;2024-03-22T05:17:39;100001.06;;;2.76;62.43
54122;BME280;40029;58.708;50.190;2024-03-22T05:20:12;99998.50;;;2.70;62.52
54122;BME280;40029;58.708;50.190;2024-03-22T05:22:43;99996.63;;;2.92;62.02
54122;BME280;40029;58.708;50.190;2024-03-22T05:25:15;99995.66;;;3.02;61.70
54122;BME280;40029;58.708;50.190;2024-03-22T05:27:46;99998.31;;;2.99;61.51
54122;BME280;40029;58.708;50.190;2024-03-22T05:30:36;99990.50;;;2.93;61.32
54122;BME280;40029;58.708;50.190;2024-03-22T05:33:07;99996.53;;;3.04;60.91
54122;BME280;40029;58.708;50.190;2024-03-22T05:35:38;99983.56;;;2.89;61.26
54122;BME280;40029;58.708;50.190;2024-03-22T05:38:09;99981.78;;;2.96;60.73
54122;BME280;40029;58.708;50.190;2024-03-22T05:40:41;99984.31;;;3.06;60.26
54122;BME280;40029;58.708;50.190;2024-03-22T05:43:12;99979.88;;;3.16;60.45
54122;BME280;40029;58.708;50.190;2024-03-22T05:45:43;99982.50;;;3.15;60.18
54122;BME280;40029;58.708;50.190;2024-03-22T05:48:14;99979.88;;;3.19;60.55
54122;BME280;40029;58.708;50.190;2024-03-22T05:50:45;99971.13;;;3.20;59.84
54122;BME280;40029;58.708;50.190;2024-03-22T05:53:16;99982.44;;;3.21;59.78
54122;BME280;40029;58.708;50.190;2024-03-22T05:55:47;99970.25;;;3.21;60.04
54122;BME280;40029;58.708;50.190;2024-03-22T05:58:19;99976.34;;;3.23;60.47
54122;BME280;40029;58.708;50.190;2024-03-22T06:00:50;99966.63;;;3.36;59.16
54122;BME280;40029;58.708;50.190;2024-03-22T06:03:24;99966.63;;;3.38;59.35
54122;BME280;40029;58.708;50.190;2024-03-22T06:06:13;99969.94;;;3.54;59.45
54122;BME280;40029;58.708;50.190;2024-03-22T06:08:45;99966.31;;;3.67;59.08
54122;BME280;40029;58.708;50.190;2024-03-22T06:11:35;99969.72;;;3.75;59.22
54122;BME280;40029;58.708;50.190;2024-03-22T06:14:24;99960.00;;;3.86;58.08
54122;BME280;40029;58.708;50.190;2024-03-22T06:16:55;99957.06;;;4.11;57.65
54122;BME280;40029;58.708;50.190;2024-03-22T06:19:27;99952.75;;;4.12;56.95
54122;BME280;40029;58.708;50.190;2024-03-22T06:21:59;99951.56;;;4.33;57.05
54122;BME280;40029;58.708;50.190;2024-03-22T06:24:30;99949.78;;;4.35;56.05
54122;BME280;40029;58.708;50.190;2024-03-22T06:27:19;99940.84;;;4.51;55.53
54122;BME280;40029;58.708;50.190;2024-03-22T06:29:51;99931.22;;;4.53;54.72
54122;BME280;40029;58.708;50.190;2024-03-22T06:32:40;99944.13;;;4.66;54.68
54122;BME280;40029;58.708;50.190;2024-03-22T06:35:12;99932.63;;;4.76;54.34
54122;BME280;40029;58.708;50.190;2024-03-22T06:37:43;99936.03;;;4.79;54.18
54122;BME280;40029;58.708;50.190;2024-03-22T06:40:14;99935.56;;;4.54;53.61
54122;BME280;40029;58.708;50.190;2024-03-22T06:42:46;99922.38;;;4.59;54.50
54122;BME280;40029;58.708;50.190;2024-03-22T06:45:36;99925.00;;;4.59;54.19
54122;BME280;40029;58.708;50.190;2024-03-22T06:48:25;99924.13;;;4.60;54.01
54122;BME280;40029;58.708;50.190;2024-03-22T06:50:56;99923.34;;;4.53;53.72
54122;BME280;40029;58.708;50.190;2024-03-22T06:53:27;99917.09;;;4.63;54.13
54122;BME280;40029;58.708;50.190;2024-03-22T06:56:17;99920.31;;;4.81;54.16
54122;BME280;40029;58.708;50.190;2024-03-22T06:58:48;99928.91;;;4.91;53.32
54122;BME280;40029;58.708;50.190;2024-03-22T07:01:38;99921.81;;;4.96;53.54
54122;BME280;40029;58.708;50.190;2024-03-22T07:04:09;99923.66;;;4.91;52.68
54122;BME280;40029;58.708;50.190;2024-03-22T07:06:40;99924.22;;;5.10;52.92
54122;BME280;40029;58.708;50.190;2024-03-22T07:09:13;99920.69;;;5.11;52.89
54122;BME280;40029;58.708;50.190;2024-03-22T07:11:45;99919.81;;;5.10;51.88
54122;BME280;40029;58.708;50.190;2024-03-22T07:14:16;99911.06;;;5.13;51.51
54122;BME280;40029;58.708;50.190;2024-03-22T07:16:47;99907.53;;;5.14;51.64
54122;BME280;40029;58.708;50.190;2024-03-22T07:19:18;99899.38;;;5.29;51.72
54122;BME280;40029;58.708;50.190;2024-03-22T07:21:50;99906.53;;;5.21;51.14
54122;BME280;40029;58.708;50.190;2024-03-22T07:24:21;99904.63;;;5.29;51.09
54122;BME280;40029;58.708;50.190;2024-03-22T07:26:54;99902.88;;;5.31;50.40
54122;BME280;40029;58.708;50.190;2024-03-22T07:29:25;99898.19;;;5.47;50.41
54122;BME280;40029;58.708;50.190;2024-03-22T07:31:57;99889.31;;;5.53;49.41
54122;BME280;40029;58.708;50.190;2024-03-22T07:34:28;99884.63;;;5.70;49.78
54122;BME280;40029;58.708;50.190;2024-03-22T07:36:59;99883.25;;;5.96;49.56
54122;BME280;40029;58.708;50.190;2024-03-22T07:39:30;99879.31;;;6.15;48.57
54122;BME280;40029;58.708;50.190;2024-03-22T07:42:02;99878.47;;;6.52;48.11
54122;BME280;40029;58.708;50.190;2024-03-22T07:44:33;99871.78;;;6.75;46.59
54122;BME280;40029;58.708;50.190;2024-03-22T07:47:05;99875.28;;;6.77;46.42
54122;BME280;40029;58.708;50.190;2024-03-22T07:49:36;99877.34;;;6.99;46.05
54122;BME280;40029;58.708;50.190;2024-03-22T07:52:07;99874.34;;;7.14;45.81
54122;BME280;40029;58.708;50.190;2024-03-22T07:54:39;99865.94;;;7.00;45.79
54122;BME280;40029;58.708;50.190;2024-03-22T07:57:10;99862.00;;;7.16;45.21
54122;BME280;40029;58.708;50.190;2024-03-22T07:59:41;99858.63;;;7.11;45.03
54122;BME280;40029;58.708;50.190;2024-03-22T08:02:14;99858.88;;;7.02;44.68
54122;BME280;40029;58.708;50.190;2024-03-22T08:04:46;99853.13;;;7.20;44.81
54122;BME280;40029;58.708;50.190;2024-03-22T08:07:17;99856.75;;;7.16;44.25
54122;BME280;40029;58.708;50.190;2024-03-22T08:09:48;99848.16;;;7.09;44.79
54122;BME280;40029;58.708;50.190;2024-03-22T08:12:19;99849.34;;;6.98;44.68
54122;BME280;40029;58.708;50.190;2024-03-22T08:14:50;99851.69;;;7.08;44.65
54122;BME280;40029;58.708;50.190;2024-03-22T08:17:41;99853.19;;;7.17;43.80
54122;BME280;40029;58.708;50.190;2024-03-22T08:20:12;99855.94;;;7.14;44.00
54122;BME280;40029;58.708;50.190;2024-03-22T08:22:43;99839.41;;;7.09;44.41
54122;BME280;40029;58.708;50.190;2024-03-22T08:25:14;99843.03;;;7.05;44.22
54122;BME280;40029;58.708;50.190;2024-03-22T08:27:49;99829.53;;;7.17;43.66
54122;BME280;40029;58.708;50.190;2024-03-22T08:30:38;99835.25;;;7.33;43.65
54122;BME280;40029;58.708;50.190;2024-03-22T08:33:10;99831.56;;;7.39;43.50
54122;BME280;40029;58.708;50.190;2024-03-22T08:35:42;99825.19;;;7.16;43.66
54122;BME280;40029;58.708;50.190;2024-03-22T08:38:13;99812.78;;;7.21;43.61
54122;BME280;40029;58.708;50.190;2024-03-22T08:40:46;99820.59;;;7.23;43.14
54122;BME280;40029;58.708;50.190;2024-03-22T08:43:35;99808.72;;;7.41;43.47
54122;BME280;40029;58.708;50.190;2024-03-22T08:46:06;99806.50;;;7.27;42.72
54122;BME280;40029;58.708;50.190;2024-03-22T08:48:38;99803.13;;;7.22;43.31
54122;BME280;40029;58.708;50.190;2024-03-22T08:51:10;99807.31;;;7.29;42.76
54122;BME280;40029;58.708;50.190;2024-03-22T08:53:41;99804.63;;;7.30;42.88
54122;BME280;40029;58.708;50.190;2024-03-22T08:56:12;99798.44;;;7.31;42.83
54122;BME280;40029;58.708;50.190;2024-03-22T08:58:43;99802.16;;;7.24;43.40
54122;BME280;40029;58.708;50.190;2024-03-22T09:01:15;99795.78;;;7.33;42.63
54122;BME280;40029;58.708;50.190;2024-03-22T09:04:04;99790.19;;;7.45;42.42
54122;BME280;40029;58.708;50.190;2024-03-22T09:06:35;99788.53;;;7.41;43.50
54122;BME280;40029;58.708;50.190;2024-03-22T09:09:06;99786.88;;;7.37;41.74
54122;BME280;40029;58.708;50.190;2024-03-22T09:11:39;99784.31;;;7.35;42.51
54122;BME280;40029;58.708;50.190;2024-03-22T09:14:10;99782.84;;;7.57;42.64
54122;BME280;40029;58.708;50.190;2024-03-22T09:16:42;99782.22;;;7.47;42.51
54122;BME280;40029;58.708;50.190;2024-03-22T09:19:13;99783.41;;;7.37;42.48
54122;BME280;40029;58.708;50.190;2024-03-22T09:21:45;99786.03;;;7.37;42.53
54122;BME280;40029;58.708;50.190;2024-03-22T09:24:16;99769.91;;;7.49;41.98
54122;BME280;40029;58.708;50.190;2024-03-22T09:26:47;99774.44;;;7.73;41.59
54122;BME280;40029;58.708;50.190;2024-03-22T09:29:18;99773.69;;;7.68;41.26
54122;BME280;40029;58.708;50.190;2024-03-22T09:31:49;99768.88;;;7.83;41.14
54122;BME280;40029;58.708;50.190;2024-03-22T09:34:21;99756.69;;;7.80;41.41
54122;BME280;40029;58.708;50.190;2024-03-22T09:37:11;99760.19;;;7.81;41.32
54122;BME280;40029;58.708;50.190;2024-03-22T09:39:42;99755.88;;;8.06;41.23
54122;BME280;40029;58.708;50.190;2024-03-22T09:42:16;99752.22;;;8.10;40.43
54122;BME280;40029;58.708;50.190;2024-03-22T09:44:50;99750.31;;;8.16;40.28
54122;BME280;40029;58.708;50.190;2024-03-22T09:47:24;99756.06;;;8.27;38.97
54122;BME280;40029;58.708;50.190;2024-03-22T09:50:14;99755.56;;;8.16;39.74
54122;BME280;40029;58.708;50.190;2024-03-22T09:52:45;99744.31;;;8.10;39.00
54122;BME280;40029;58.708;50.190;2024-03-22T09:55:24;99750.44;;;8.11;38.94
54122;BME280;40029;58.708;50.190;2024-03-22T09:57:55;99740.22;;;8.28;38.96
54122;BME280;40029;58.708;50.190;2024-03-22T10:00:46;99745.75;;;8.47;38.74
54122;BME280;40029;58.708;50.190;2024-03-22T10:03:17;99727.25;;;8.74;38.43
54122;BME280;40029;58.708;50.190;2024-03-22T10:05:49;99727.66;;;8.63;38.76
54122;BME280;40029;58.708;50.190;2024-03-22T10:08:20;99721.63;;;8.33;39.25
54122;BME280;40029;58.708;50.190;2024-03-22T10:10:52;99729.63;;;8.03;39.34
54122;BME280;40029;58.708;50.190;2024-03-22T10:13:23;99720.13;;;7.98;38.63
54122;BME280;40029;58.708;50.190;2024-03-22T10:15:55;99723.53;;;8.28;39.09
54122;BME280;40029;58.708;50.190;2024-03-22T10:18:27;99714.47;;;8.63;38.34
54122;BME280;40029;58.708;50.190;2024-03-22T10:21:04;99720.75;;;8.84;37.51
54122;BME280;40029;58.708;50.190;2024-03-22T10:23:36;99711.25;;;9.27;36.72
54122;BME280;40029;58.708;50.190;2024-03-22T10:26:08;99711.44;;;9.46;36.16
54122;BME280;40029;58.708;50.190;2024-03-22T10:28:45;99710.81;;;9.40;35.42
54122;BME280;40029;58.708;50.190;2024-03-22T10:31:19;99704.19;;;9.30;35.61
54122;BME280;40029;58.708;50.190;2024-03-22T10:33:53;99698.41;;;9.18;35.35
54122;BME280;40029;58.708;50.190;2024-03-22T10:36:26;99702.44;;;9.28;35.71
54122;BME280;40029;58.708;50.190;2024-03-22T10:39:17;99695.78;;;9.42;36.02
54122;BME280;40029;58.708;50.190;2024-03-22T10:41:51;99691.72;;;9.10;35.75
54122;BME280;40029;58.708;50.190;2024-03-22T10:44:41;99687.31;;;9.34;35.29
54122;BME280;40029;58.708;50.190;2024-03-22T10:47:32;99689.03;;;9.11;35.88
54122;BME280;40029;58.708;50.190;2024-03-22T10:50:06;99678.09;;;8.73;35.71
54122;BME280;40029;58.708;50.190;2024-03-22T10:52:55;99683.53;;;8.68;36.55
54122;BME280;40029;58.708;50.190;2024-03-22T10:55:32;99665.47;;;8.81;36.18
54122;BME280;40029;58.708;50.190;2024-03-22T10:58:04;99675.56;;;8.70;36.05
54122;BME280;40029;58.708;50.190;2024-03-22T11:00:56;99665.47;;;8.58;35.57
54122;BME280;40029;58.708;50.190;2024-03-22T11:03:45;99665.25;;;8.37;36.03
54122;BME280;40029;58.708;50.190;2024-03-22T11:06:20;99661.94;;;8.32;37.19
54122;BME280;40029;58.708;50.190;2024-03-22T11:08:51;99655.94;;;8.54;35.84
54122;BME280;40029;58.708;50.190;2024-03-22T11:11:41;99660.34;;;8.53;35.67
54122;BME280;40029;58.708;50.190;2024-03-22T11:14:12;99654.28;;;8.51;36.42
54122;BME280;40029;58.708;50.190;2024-03-22T11:17:02;99643.53;;;8.81;35.30
54122;BME280;40029;58.708;50.190;2024-03-22T11:19:33;99651.16;;;8.88;34.45
54122;BME280;40029;58.708;50.190;2024-03-22T11:22:08;99649.91;;;8.75;34.70
54122;BME280;40029;58.708;50.190;2024-03-22T11:24:39;99644.38;;;8.81;34.89
54122;BME280;40029;58.708;50.190;2024-03-22T11:27:29;99640.13;;;8.54;35.09
54122;BME280;40029;58.708;50.190;2024-03-22T11:30:00;99639.91;;;8.83;34.88
54122;BME280;40029;58.708;50.190;2024-03-22T11:32:50;99624.03;;;8.85;34.80
54122;BME280;40029;58.708;50.190;2024-03-22T11:35:22;99629.91;;;8.69;35.19
54122;BME280;40029;58.708;50.190;2024-03-22T11:37:54;99626.13;;;8.77;35.61
54122;BME280;40029;58.708;50.190;2024-03-22T11:40:28;99616.81;;;8.90;35.30
54122;BME280;40029;58.708;50.190;2024-03-22T11:43:04;99615.84;;;8.93;34.80
54122;BME280;40029;58.708;50.190;2024-03-22T11:45:36;99624.94;;;8.85;34.72
54122;BME280;40029;58.708;50.190;2024-03-22T11:48:08;99613.19;;;8.71;34.97
54122;BME280;40029;58.708;50.190;2024-03-22T11:50:40;99608.28;;;8.83;35.25
54122;BME280;40029;58.708;50.190;2024-03-22T11:53:11;99613.19;;;8.93;34.73
54122;BME280;40029;58.708;50.190;2024-03-22T11:55:42;99602.91;;;8.38;36.04
54122;BME280;40029;58.708;50.190;2024-03-22T11:58:14;99594.78;;;8.69;35.53
54122;BME280;40029;58.708;50.190;2024-03-22T12:00:45;99594.94;;;8.88;34.19
54122;BME280;40029;58.708;50.190;2024-03-22T12:03:16;99592.69;;;8.77;35.16
54122;BME280;40029;58.708;50.190;2024-03-22T12:05:47;99588.78;;;9.11;34.55
54122;BME280;40029;58.708;50.190;2024-03-22T12:08:22;99582.28;;;9.20;34.65
54122;BME280;40029;58.708;50.190;2024-03-22T12:10:53;99580.47;;;9.64;32.97
54122;BME280;40029;58.708;50.190;2024-03-22T12:13:43;99573.44;;;9.65;33.69
54122;BME280;40029;58.708;50.190;2024-03-22T12:16:14;99572.47;;;9.45;33.63
54122;BME280;40029;58.708;50.190;2024-03-22T12:18:46;99571.25;;;9.32;34.22
54122;BME280;40029;58.708;50.190;2024-03-22T12:21:17;99565.69;;;9.38;33.91
54122;BME280;40029;58.708;50.190;2024-03-22T12:23:48;99568.28;;;9.40;34.10
54122;BME280;40029;58.708;50.190;2024-03-22T12:26:19;99559.81;;;9.54;34.82
54122;BME280;40029;58.708;50.190;2024-03-22T12:28:50;99551.31;;;9.68;34.55
54122;BME280;40029;58.708;50.190;2024-03-22T12:31:22;99547.97;;;10.26;33.83
54122;BME280;40029;58.708;50.190;2024-03-22T12:34:12;99542.47;;;11.08;32.76
54122;BME280;40029;58.708;50.190;2024-03-22T12:37:02;99535.91;;;11.34;32.51
54122;BME280;40029;58.708;50.190;2024-03-22T12:39:33;99538.53;;;11.53;31.90
54122;BME280;40029;58.708;50.190;2024-03-22T12:42:06;99538.09;;;11.26;31.23
54122;BME280;40029;58.708;50.190;2024-03-22T12:44:37;99532.59;;;11.11;30.86
54122;BME280;40029;58.708;50.190;2024-03-22T12:47:08;99523.03;;;10.71;30.65
54122;BME280;40029;58.708;50.190;2024-03-22T12:49:39;99529.38;;;10.86;30.84
54122;BME280;40029;58.708;50.190;2024-03-22T12:52:10;99522.91;;;10.74;29.45
54122;BME280;40029;58.708;50.190;2024-03-22T12:54:42;99518.66;;;11.08;29.70
54122;BME280;40029;58.708;50.190;2024-03-22T12:57:13;99505.41;;;11.08;29.49
54122;BME280;40029;58.708;50.190;2024-03-22T12:59:44;99513.88;;;10.97;29.82
54122;BME280;40029;58.708;50.190;2024-03-22T13:02:17;99516.13;;;11.05;30.07
54122;BME280;40029;58.708;50.190;2024-03-22T13:04:48;99501.31;;;10.83;29.55
54122;BME280;40029;58.708;50.190;2024-03-22T13:07:22;99497.63;;;10.08;30.35
54122;BME280;40029;58.708;50.190;2024-03-22T13:10:11;99502.34;;;10.01;30.78
54122;BME280;40029;58.708;50.190;2024-03-22T13:13:01;99499.06;;;9.76;30.18
54122;BME280;40029;58.708;50.190;2024-03-22T13:15:32;99494.88;;;9.27;32.11
54122;BME280;40029;58.708;50.190;2024-03-22T13:18:04;99486.03;;;9.08;31.71
54122;BME280;40029;58.708;50.190;2024-03-22T13:20:36;99481.53;;;9.10;31.74
54122;BME280;40029;58.708;50.190;2024-03-22T13:23:07;99482.75;;;8.79;31.34
54122;BME280;40029;58.708;50.190;2024-03-22T13:26:03;99473.78;;;8.83;31.48
54122;BME280;40029;58.708;50.190;2024-03-22T13:28:34;99482.91;;;8.76;31.95
54122;BME280;40029;58.708;50.190;2024-03-22T13:31:05;99475.63;;;8.81;31.68